Time;durP1;ratioP1;P1;durP2;ratioP2;P2;SDS_P1;SDS_P2;PMS_P1;PMS_P2;Temp;Humidity;BMP_temperature;BMP_pressure;BME280_temperature;BME280_humidity;BME280_pressure;Samples;Min_cycle;Max_cycle;Signal;HPM_P1;HPM_P2
2024/03/05 00:00:10;;;;;;;26.15;13.57;;;10.00;65.30;;;5.20;100.00;95036.69;4980761;28;20025;-55
2024/03/05 00:02:41;;;;;;;25.30;13.50;;;10.00;65.40;;;5.22;100.00;95037.25;4977982;28;20029;-51
2024/03/05 00:05:08;;;;;;;24.33;13.90;;;10.00;65.40;;;5.23;100.00;95034.38;4977562;28;20473;-54
2024/03/05 00:07:38;;;;;;;23.02;13.40;;;10.00;65.40;;;5.24;100.00;95041.25;4977148;28;20036;-54
2024/03/05 00:10:04;;;;;;;24.33;13.35;;;10.00;65.40;;;5.24;100.00;95041.25;4958421;28;20030;-56
2024/03/05 00:12:31;;;;;;;21.80;13.52;;;10.10;65.50;;;5.26;100.00;95038.34;4953273;28;20113;-50
2024/03/05 00:14:57;;;;;;;26.42;14.15;;;10.10;65.50;;;5.22;100.00;95035.41;4977757;28;20135;-50
2024/03/05 00:17:23;;;;;;;27.65;13.73;;;10.10;66.20;;;5.23;100.00;95041.47;4976287;28;20054;-51
2024/03/05 00:19:50;;;;;;;25.42;14.18;;;10.10;65.50;;;5.26;100.00;95035.72;4983357;28;20111;-51
2024/03/05 00:22:16;;;;;;;25.90;14.68;;;10.10;65.50;;;5.28;100.00;95037.06;4977821;28;20503;-50
2024/03/05 00:24:42;;;;;;;23.95;13.82;;;10.10;65.50;;;5.31;100.00;95033.94;4979179;28;20528;-53
2024/03/05 00:27:09;;;;;;;28.05;14.35;;;10.10;65.40;;;5.32;100.00;95032.09;4977032;28;20064;-50
2024/03/05 00:29:36;;;;;;;23.33;12.95;;;10.10;65.40;;;5.34;100.00;95035.28;4981389;28;20490;-50
2024/03/05 00:32:02;;;;;;;27.30;14.68;;;10.10;66.20;;;5.34;100.00;95036.09;4979613;28;20030;-52
2024/03/05 00:34:28;;;;;;;26.13;14.30;;;10.10;65.40;;;5.32;100.00;95035.53;4975577;28;20050;-51
2024/03/05 00:36:54;;;;;;;25.08;13.20;;;10.20;65.30;;;5.34;100.00;95033.44;4975441;28;20692;-51
2024/03/05 00:39:19;;;;;;;25.80;14.45;;;10.20;65.30;;;5.37;100.00;95040.09;4975362;28;20022;-53
2024/03/05 00:41:46;;;;;;;24.70;13.30;;;10.20;65.30;;;5.35;100.00;95036.88;4977071;28;20109;-56
2024/03/05 00:44:12;;;;;;;26.63;14.30;;;10.20;65.20;;;5.32;100.00;95043.44;4975395;28;20492;-53
2024/03/05 00:46:38;;;;;;;24.40;13.38;;;10.20;66.00;;;5.33;100.00;95041.63;4976753;28;20448;-53
2024/03/05 00:49:03;;;;;;;24.67;14.07;;;10.20;65.10;;;5.31;100.00;95044.50;4970087;28;20026;-54
2024/03/05 00:51:29;;;;;;;23.83;13.40;;;10.20;65.10;;;5.29;100.00;95037.88;4968211;28;20030;-56
2024/03/05 00:53:56;;;;;;;26.63;13.90;;;10.20;65.10;;;5.23;100.00;95037.03;4977847;28;20042;-55
2024/03/05 00:56:22;;;;;;;28.08;14.38;;;10.20;65.00;;;5.28;100.00;95038.91;4976145;28;20425;-53
2024/03/05 00:58:48;;;;;;;23.15;14.13;;;10.20;65.10;;;5.29;100.00;95041.28;4978502;28;20413;-53
2024/03/05 01:01:15;;;;;;;23.45;14.70;;;10.20;65.10;;;5.28;100.00;95037.06;4977410;28;20037;-52
2024/03/05 01:03:41;;;;;;;23.10;13.88;;;10.20;65.10;;;5.28;100.00;95041.56;4977952;28;20080;-50
2024/03/05 01:06:07;;;;;;;25.85;13.70;;;10.20;65.10;;;5.29;100.00;95043.16;4976118;28;20034;-50
2024/03/05 01:08:33;;;;;;;23.60;14.15;;;10.20;65.10;;;5.30;100.00;95050.03;4974039;28;20358;-52
2024/03/05 01:11:00;;;;;;;29.25;15.18;;;10.20;65.20;;;5.28;100.00;95047.63;4980876;28;20104;-51
2024/03/05 01:13:26;;;;;;;27.13;14.45;;;10.20;65.20;;;5.32;100.00;95047.94;4972170;28;20117;-51
2024/03/05 01:15:53;;;;;;;26.23;13.95;;;10.20;65.30;;;5.33;100.00;95050.34;4957664;28;20257;-50
2024/03/05 01:18:18;;;;;;;23.23;13.15;;;10.20;65.30;;;5.34;100.00;95049.28;4973480;28;20438;-51
2024/03/05 01:20:44;;;;;;;27.70;14.90;;;10.20;65.30;;;5.35;100.00;95052.72;4975840;28;20040;-54
2024/03/05 01:23:10;;;;;;;26.42;15.00;;;10.20;65.40;;;5.35;100.00;95050.09;4975499;28;20061;-53
2024/03/05 01:25:38;;;;;;;26.30;14.13;;;10.20;66.20;;;5.38;100.00;95054.09;4951104;28;20033;-52
2024/03/05 01:28:07;;;;;;;29.80;15.07;;;10.20;65.40;;;5.39;100.00;95051.22;4975362;28;20543;-52
2024/03/05 01:30:34;;;;;;;29.38;15.27;;;10.20;65.40;;;5.38;100.00;95060.16;4978477;28;20030;-54
2024/03/05 01:33:05;;;;;;;30.60;15.85;;;10.20;65.30;;;5.37;100.00;95055.94;4973750;28;20109;-51
2024/03/05 01:35:31;;;;;;;23.42;14.52;;;10.20;65.30;;;5.39;100.00;95050.41;4978306;28;20501;-52
2024/03/05 01:37:58;;;;;;;23.95;14.13;;;10.20;65.30;;;5.37;100.00;95052.50;4968411;28;20019;-55
2024/03/05 01:40:24;;;;;;;27.27;15.88;;;10.20;66.10;;;5.40;100.00;95049.38;4980181;28;20095;-51
2024/03/05 01:42:50;;;;;;;30.88;15.35;;;10.30;65.30;;;5.42;100.00;95050.72;4950856;28;20080;-51
2024/03/05 01:45:19;;;;;;;26.00;15.00;;;10.30;65.30;;;5.41;100.00;95059.69;4977911;28;20029;-55
2024/03/05 01:47:48;;;;;;;28.27;15.57;;;10.30;65.30;;;5.40;100.00;95055.44;4966109;28;20559;-53
2024/03/05 01:50:15;;;;;;;27.58;15.10;;;10.30;65.30;;;5.43;100.00;95051.53;4973038;28;20026;-52
2024/03/05 01:52:43;;;;;;;28.38;15.07;;;10.30;65.20;;;5.41;100.00;95051.75;4988406;23;20050;-53
2024/03/05 01:55:15;;;;;;;29.70;15.27;;;10.30;65.20;;;5.43;100.00;95054.16;4989487;28;20112;-50
2024/03/05 01:57:46;;;;;;;24.98;14.90;;;10.30;65.20;;;5.43;100.00;95054.16;4986964;28;20029;-54
2024/03/05 02:00:15;;;;;;;27.67;15.98;;;10.30;65.10;;;5.36;100.00;95059.63;4990392;28;20036;-51
2024/03/05 02:02:44;;;;;;;27.08;15.20;;;10.30;65.10;;;5.36;100.00;95056.16;4991270;28;20022;-50
2024/03/05 02:05:12;;;;;;;27.33;14.80;;;10.30;65.10;;;5.36;100.00;95059.63;4993461;28;20033;-51
2024/03/05 02:07:41;;;;;;;27.13;14.68;;;10.30;65.10;;;5.39;100.00;95050.41;4987187;28;20037;-54
2024/03/05 02:10:08;;;;;;;27.83;15.25;;;10.30;65.10;;;5.39;100.00;95055.69;4969700;28;20359;-49
2024/03/05 02:12:42;;;;;;;26.23;14.23;;;10.30;65.10;;;5.36;100.00;95054.34;4991168;28;20488;-50
2024/03/05 02:15:11;;;;;;;27.45;15.98;;;10.30;65.10;;;5.34;100.00;95049.28;4987474;28;20136;-52
2024/03/05 02:17:40;;;;;;;27.88;14.48;;;10.30;65.10;;;5.32;100.00;95051.38;4992667;28;20032;-49
2024/03/05 02:20:09;;;;;;;26.40;15.45;;;10.30;65.10;;;5.32;100.00;95050.56;4986647;28;20393;-53
2024/03/05 02:22:37;;;;;;;27.70;15.43;;;10.30;65.10;;;5.30;100.00;95055.31;4995201;28;20048;-50
2024/03/05 02:25:05;;;;;;;29.52;15.43;;;10.30;65.10;;;5.29;100.00;95053.72;4987709;28;20033;-50
2024/03/05 02:27:33;;;;;;;28.98;15.38;;;10.20;65.10;;;5.28;100.00;95052.91;4991239;28;20110;-49
2024/03/05 02:30:00;;;;;;;30.48;15.98;;;10.20;65.20;;;5.28;100.00;95060.03;4966270;28;20085;-50
2024/03/05 02:32:27;;;;;;;30.48;16.10;;;10.20;65.20;;;5.27;100.00;95058.44;4975242;28;20040;-51
2024/03/05 02:34:54;;;;;;;28.42;15.43;;;10.20;65.30;;;5.27;100.00;95059.25;4971436;28;20029;-49
2024/03/05 02:37:23;;;;;;;33.60;15.73;;;10.20;65.30;;;5.28;100.00;95062.69;4988372;28;20105;-50
2024/03/05 02:39:49;;;;;;;32.05;15.48;;;10.20;65.40;;;5.29;100.00;95064.28;4993678;28;20157;-51
2024/03/05 02:42:15;;;;;;;27.30;16.15;;;10.20;65.40;;;5.28;100.00;95068.75;4992921;28;20571;-52
2024/03/05 02:44:41;;;;;;;27.85;15.10;;;10.20;65.50;;;5.29;100.00;95061.63;4992333;28;20033;-49
2024/03/05 02:47:07;;;;;;;27.60;15.48;;;10.20;65.50;;;5.29;100.00;95067.72;4991739;28;20030;-50
2024/03/05 02:49:36;;;;;;;29.60;15.30;;;10.20;65.50;;;5.28;100.00;95065.31;4985130;28;20029;-49
2024/03/05 02:52:03;;;;;;;31.23;16.42;;;10.20;65.50;;;5.28;100.00;95065.31;4984518;28;20076;-52
2024/03/05 02:54:29;;;;;;;25.48;15.30;;;10.20;65.60;;;5.29;100.00;95067.72;4981551;28;20089;-52
2024/03/05 02:56:55;;;;;;;29.17;15.65;;;10.20;65.60;;;5.30;100.00;95074.59;4987326;28;20025;-51
2024/03/05 02:59:21;;;;;;;25.60;15.63;;;10.20;65.60;;;5.31;100.00;95070.13;4992598;28;20022;-52
2024/03/05 03:01:47;;;;;;;24.48;15.07;;;10.10;65.60;;;5.29;100.00;95066.91;4990178;28;20112;-50
2024/03/05 03:04:13;;;;;;;29.10;16.65;;;10.20;65.60;;;5.31;100.00;95075.41;4988731;28;20025;-50
2024/03/05 03:06:39;;;;;;;31.88;14.90;;;10.20;65.70;;;5.30;100.00;95076.44;4993251;28;20033;-52
2024/03/05 03:09:07;;;;;;;24.85;14.38;;;10.20;65.60;;;5.28;100.00;95081.97;4983810;28;20034;-53
2024/03/05 03:11:34;;;;;;;29.00;15.43;;;10.20;65.60;;;5.27;100.00;95087.50;4994069;28;20026;-55
2024/03/05 03:14:00;;;;;;;29.02;15.60;;;10.20;65.60;;;5.23;100.00;95087.19;4985570;28;20030;-52
2024/03/05 03:16:27;;;;;;;31.17;16.40;;;10.10;65.50;;;5.23;100.00;95097.75;4991000;28;20021;-53
2024/03/05 03:18:53;;;;;;;31.42;16.42;;;10.10;65.50;;;5.22;100.00;95093.50;4987681;28;20030;-49
2024/03/05 03:21:19;;;;;;;28.75;16.05;;;10.10;65.60;;;5.21;100.00;95102.47;4994105;28;20040;-50
2024/03/05 03:23:44;;;;;;;30.45;16.17;;;10.10;65.60;;;5.19;100.00;95103.75;4988810;28;20451;-52
2024/03/05 03:26:11;;;;;;;24.70;14.93;;;10.10;65.60;;;5.17;100.00;95109.28;4995220;28;20034;-53
2024/03/05 03:28:37;;;;;;;28.00;15.95;;;10.10;65.70;;;5.15;100.00;95111.34;4985666;28;20017;-52
2024/03/05 03:31:05;;;;;;;35.65;17.30;;;10.10;65.70;;;5.15;100.00;95113.19;4986112;28;20041;-50
2024/03/05 03:33:32;;;;;;;32.22;16.23;;;10.10;65.70;;;5.17;100.00;95122.50;4986055;28;20254;-54
2024/03/05 03:35:58;;;;;;;30.67;15.38;;;10.10;65.80;;;5.16;100.00;95125.34;4987806;28;20089;-51
2024/03/05 03:38:24;;;;;;;27.90;16.15;;;10.10;65.80;;;5.19;100.00;95122.22;4992464;28;20403;-54
2024/03/05 03:40:51;;;;;;;27.45;15.63;;;10.10;65.90;;;5.20;100.00;95118.53;4985359;28;20030;-54
2024/03/05 03:43:17;;;;;;;30.27;15.65;;;10.10;65.90;;;5.22;100.00;95125.19;4994448;28;20026;-52
2024/03/05 03:45:43;;;;;;;29.42;16.77;;;10.10;65.90;;;5.21;100.00;95117.50;4996516;28;20042;-52
2024/03/05 03:48:10;;;;;;;28.48;15.73;;;10.10;65.90;;;5.21;100.00;95123.59;4985584;28;20048;-51
2024/03/05 03:50:37;;;;;;;33.83;17.25;;;10.10;65.90;;;5.20;100.00;95134.38;4993836;28;20033;-51
2024/03/05 03:53:05;;;;;;;32.80;17.15;;;10.10;65.90;;;5.20;100.00;95137.03;4979704;28;20124;-52
2024/03/05 03:55:31;;;;;;;36.08;17.10;;;10.10;66.00;;;5.20;100.00;95139.66;4983526;28;20029;-49
2024/03/05 03:57:57;;;;;;;36.22;19.05;;;10.10;66.00;;;5.20;100.00;95145.78;4993275;28;20080;-49
2024/03/05 04:00:23;;;;;;;33.60;18.70;;;10.10;66.00;;;5.23;100.00;95133.91;4983217;28;20033;-51
2024/03/05 04:02:49;;;;;;;33.10;18.67;;;10.10;66.10;;;5.23;100.00;95141.81;5000557;28;20021;-50
2024/03/05 04:05:18;;;;;;;35.45;19.08;;;10.10;66.30;;;5.26;100.00;95146.63;4993659;28;20551;-50
2024/03/05 04:07:44;;;;;;;35.92;20.20;;;10.10;66.30;;;5.24;100.00;95149.53;4998628;28;20484;-53
2024/03/05 04:10:10;;;;;;;46.22;22.50;;;10.10;66.30;;;5.21;100.00;95149.22;4993814;28;20064;-50
2024/03/05 04:12:39;;;;;;;39.72;21.67;;;10.10;66.40;;;5.17;100.00;95143.59;4991689;28;20384;-51
2024/03/05 04:15:07;;;;;;;40.00;21.30;;;10.10;66.60;;;5.17;100.00;95146.25;4993992;28;20026;-50
2024/03/05 04:17:36;;;;;;;40.30;20.80;;;10.00;66.50;;;5.20;100.00;95145.78;4986678;28;20479;-55
2024/03/05 04:20:04;;;;;;;39.90;21.85;;;10.00;66.60;;;5.21;100.00;95151.84;4989786;28;20489;-53
2024/03/05 04:22:30;;;;;;;41.00;22.63;;;10.00;66.70;;;5.19;100.00;95149.44;4986102;28;20116;-51
2024/03/05 04:24:57;;;;;;;39.38;22.45;;;10.00;66.70;;;5.16;100.00;95152.56;4994322;28;20077;-53
2024/03/05 04:27:24;;;;;;;39.53;22.92;;;9.90;66.70;;;5.20;100.00;95150.22;5005696;28;20480;-51
2024/03/05 04:29:56;;;;;;;42.25;23.23;;;9.90;66.80;;;5.21;100.00;95146.56;4997525;28;20074;-51
2024/03/05 04:32:27;;;;;;;39.97;22.83;;;9.90;66.80;;;5.25;100.00;95150.31;4999374;28;20486;-52
2024/03/05 04:35:06;;;;;;;41.13;22.55;;;9.90;67.00;;;5.26;100.00;95144.78;4998148;28;20488;-55
2024/03/05 04:37:32;;;;;;;40.65;22.02;;;9.90;66.90;;;5.26;100.00;95144.78;4995265;28;20033;-53
2024/03/05 04:39:58;;;;;;;41.25;22.63;;;9.90;67.00;;;5.26;100.00;95159.81;4998620;28;20024;-51
2024/03/05 04:42:25;;;;;;;39.97;22.85;;;9.90;67.00;;;5.26;100.00;95155.34;4986043;28;20029;-50
2024/03/05 04:44:53;;;;;;;38.88;22.77;;;9.90;67.80;;;5.24;100.00;95154.00;4998557;28;20017;-50
2024/03/05 04:47:19;;;;;;;43.03;22.48;;;9.90;67.00;;;5.22;100.00;95159.50;4997277;28;20404;-52
2024/03/05 04:49:45;;;;;;;40.25;21.38;;;10.00;67.10;;;5.24;100.00;95160.09;4988694;28;20041;-53
2024/03/05 04:52:11;;;;;;;41.92;22.70;;;9.90;67.10;;;5.24;100.00;95161.94;4987540;28;20472;-50
2024/03/05 04:54:37;;;;;;;39.05;21.55;;;9.90;67.10;;;5.23;100.00;95170.88;4993875;28;20029;-51
2024/03/05 04:57:05;;;;;;;46.58;23.50;;;9.90;67.20;;;5.23;100.00;95166.41;4993316;28;20389;-50
2024/03/05 04:59:32;;;;;;;40.00;22.58;;;9.90;67.20;;;5.23;100.00;95176.97;4997125;28;20037;-51
2024/03/05 05:01:58;;;;;;;42.47;23.05;;;10.00;67.20;;;5.22;100.00;95169.28;4991477;28;20045;-52
2024/03/05 05:04:24;;;;;;;40.50;23.00;;;10.00;67.20;;;5.21;100.00;95170.34;4996663;28;20026;-53
2024/03/05 05:06:50;;;;;;;43.40;24.25;;;10.00;67.30;;;5.20;100.00;95166.06;4989831;28;20381;-54
2024/03/05 05:09:18;;;;;;;42.42;23.67;;;10.00;67.30;;;5.18;100.00;95176.88;4991338;28;20068;-51
2024/03/05 05:11:44;;;;;;;41.38;23.25;;;10.00;67.30;;;5.19;100.00;95175.84;5002957;28;20036;-52
2024/03/05 05:14:10;;;;;;;40.53;23.50;;;9.90;67.30;;;5.18;100.00;95179.53;4997725;28;20496;-52
2024/03/05 05:16:36;;;;;;;46.53;25.92;;;9.90;67.40;;;5.18;100.00;95176.09;4996181;28;20032;-50
2024/03/05 05:19:04;;;;;;;42.20;23.70;;;9.90;67.40;;;5.16;100.00;95175.53;4993679;28;20021;-51
2024/03/05 05:21:32;;;;;;;45.85;24.48;;;9.90;67.40;;;5.17;100.00;95174.47;4988951;28;20069;-50
2024/03/05 05:23:59;;;;;;;43.20;23.40;;;9.90;67.50;;;5.15;100.00;95169.44;4989312;28;20088;-50
2024/03/05 05:26:25;;;;;;;51.22;24.90;;;9.90;67.50;;;5.16;100.00;95178.16;4989782;28;20056;-50
2024/03/05 05:28:51;;;;;;;45.63;23.85;;;9.90;67.60;;;5.17;100.00;95183.22;4991178;28;20507;-53
2024/03/05 05:31:26;;;;;;;47.25;24.23;;;9.90;67.60;;;5.18;100.00;95181.38;4990362;28;20097;-50
2024/03/05 05:33:53;;;;;;;46.25;24.02;;;9.90;67.80;;;5.20;100.00;95189.84;4988527;28;20104;-51
2024/03/05 05:36:19;;;;;;;46.75;24.60;;;9.90;67.80;;;5.20;100.00;95177.47;4998773;28;20026;-51
2024/03/05 05:38:45;;;;;;;44.30;23.45;;;9.90;67.80;;;5.20;100.00;95180.09;4992790;28;20025;-52
2024/03/05 05:41:11;;;;;;;45.72;25.17;;;9.90;67.80;;;5.19;100.00;95189.03;4998116;28;20116;-50
2024/03/05 05:43:36;;;;;;;45.45;23.92;;;9.90;67.80;;;5.16;100.00;95186.09;4988266;28;20507;-50
2024/03/05 05:46:04;;;;;;;44.90;23.02;;;9.90;67.80;;;5.17;100.00;95185.03;4995112;28;20037;-56
2024/03/05 05:48:32;;;;;;;44.25;23.95;;;9.90;67.80;;;5.20;100.00;95184.56;4995631;28;20052;-53
2024/03/05 05:50:58;;;;;;;43.38;24.63;;;9.90;67.80;;;5.20;100.00;95187.19;4992887;28;20380;-51
2024/03/05 05:53:24;;;;;;;49.92;24.63;;;9.90;67.80;;;5.19;100.00;95189.03;4991825;28;20214;-55
2024/03/05 05:55:50;;;;;;;47.83;25.38;;;9.90;67.90;;;5.19;100.00;95183.75;4991703;28;20025;-52
2024/03/05 05:58:16;;;;;;;54.05;25.45;;;9.90;67.90;;;5.20;100.00;95188.03;4993955;28;20040;-53
2024/03/05 06:00:41;;;;;;;51.20;25.30;;;9.90;67.90;;;5.19;100.00;95190.88;5000724;28;20027;-57
2024/03/05 06:03:08;;;;;;;46.47;24.25;;;10.00;68.00;;;5.14;100.00;95196.91;4988845;28;20026;-56
2024/03/05 06:05:36;;;;;;;47.55;23.73;;;9.90;67.90;;;5.09;100.00;95197.59;4995454;28;20026;-57
2024/03/05 06:08:10;;;;;;;45.25;23.30;;;9.90;67.90;;;5.04;100.00;95202.00;4980471;28;20040;-56
2024/03/05 06:10:41;;;;;;;42.15;22.25;;;9.90;68.00;;;5.04;100.00;95200.16;4992365;28;20033;-54
2024/03/05 06:13:07;;;;;;;37.28;21.73;;;9.90;68.00;;;5.09;100.00;95202.09;4987757;28;20072;-54
2024/03/05 06:15:33;;;;;;;40.75;22.58;;;9.90;68.10;;;5.14;100.00;95212.75;4999615;28;20021;-55
2024/03/05 06:17:59;;;;;;;42.53;22.50;;;9.90;68.10;;;5.17;100.00;95204.34;4992922;28;20032;-57
2024/03/05 06:20:28;;;;;;;43.25;23.10;;;9.90;68.10;;;5.20;100.00;95205.69;4991547;28;20468;-57
2024/03/05 06:23:00;;;;;;;40.80;22.67;;;9.90;68.20;;;5.19;100.00;95212.00;4989947;28;20032;-55
2024/03/05 06:25:30;;;;;;;40.80;21.90;;;9.90;68.20;;;5.14;100.00;95214.56;4987415;28;20029;-55
2024/03/05 06:27:56;;;;;;;38.33;21.58;;;9.90;68.10;;;5.15;100.00;95219.63;4992471;28;20104;-53
2024/03/05 06:30:23;;;;;;;39.45;21.30;;;9.90;68.20;;;5.17;100.00;95216.72;4986551;28;20387;-52
2024/03/05 06:32:51;;;;;;;41.53;22.25;;;9.90;68.20;;;5.17;100.00;95222.81;4993110;28;20061;-56
2024/03/05 06:35:25;;;;;;;41.47;21.92;;;9.90;68.30;;;5.18;100.00;95227.06;4996025;28;20108;-56
2024/03/05 06:37:53;;;;;;;43.38;23.00;;;9.90;68.30;;;5.17;100.00;95225.47;4994054;28;20483;-55
2024/03/05 06:40:20;;;;;;;36.42;20.60;;;9.90;68.30;;;5.17;100.00;95222.81;4992643;28;20184;-56
2024/03/05 06:42:52;;;;;;;43.50;23.85;;;9.90;68.30;;;5.19;100.00;95223.38;4987627;28;20084;-54
2024/03/05 06:45:27;;;;;;;45.28;22.70;;;9.90;68.30;;;5.21;100.00;95223.94;4988369;28;20026;-51
2024/03/05 06:48:07;;;;;;;40.88;22.23;;;10.00;68.30;;;5.19;100.00;95231.28;4991686;28;20108;-54
2024/03/05 06:50:36;;;;;;;41.60;21.40;;;9.90;68.30;;;5.18;100.00;95229.69;4991461;28;20443;-56
2024/03/05 06:58:37;;;;;;;44.08;22.25;;;10.00;68.20;;;5.27;100.00;95241.47;4995174;28;20036;-54
2024/03/05 07:01:09;;;;;;;47.55;22.48;;;10.00;68.20;;;5.29;100.00;95236.72;4992537;28;20500;-56
2024/03/05 07:03:39;;;;;;;41.70;21.63;;;10.00;68.30;;;5.31;100.00;95239.94;4986937;28;20144;-51
2024/03/05 07:06:09;;;;;;;36.63;21.05;;;10.10;68.30;;;5.32;100.00;95253.94;4991726;28;20058;-55
2024/03/05 07:08:43;;;;;;;44.58;22.52;;;10.10;68.30;;;5.32;100.00;95252.09;4978564;28;20508;-55
2024/03/05 07:11:15;;;;;;;41.28;21.40;;;10.10;68.30;;;5.34;100.00;95254.53;4990654;28;20026;-52
2024/03/05 07:13:47;;;;;;;39.65;21.42;;;10.10;68.30;;;5.34;100.00;95257.94;5002204;28;20439;-52
2024/03/05 07:16:18;;;;;;;43.58;21.83;;;10.10;68.30;;;5.33;100.00;95259.00;4987464;28;21326;-54
2024/03/05 07:18:49;;;;;;;41.10;21.27;;;10.10;68.30;;;5.31;100.00;95265.56;4992221;28;20029;-53
2024/03/05 07:21:19;;;;;;;41.00;21.45;;;10.10;68.30;;;5.29;100.00;95265.00;4984189;28;20453;-54
2024/03/05 07:23:46;;;;;;;39.42;20.95;;;10.10;68.30;;;5.29;100.00;95265.00;4990364;28;20120;-51
2024/03/05 07:26:15;;;;;;;47.35;22.13;;;10.10;68.30;;;5.23;100.00;95266.75;4992633;28;20384;-54
2024/03/05 07:28:42;;;;;;;41.97;21.10;;;10.10;68.30;;;5.20;100.00;95264.59;4991102;28;20026;-52
2024/03/05 07:31:08;;;;;;;42.88;21.45;;;10.00;68.30;;;5.20;100.00;95261.97;4989643;28;20032;-54
2024/03/05 07:33:35;;;;;;;41.55;21.65;;;10.00;68.30;;;5.19;100.00;95267.47;4988716;28;20022;-53
2024/03/05 07:36:01;;;;;;;41.58;20.50;;;10.00;68.40;;;5.12;100.00;95264.97;4995731;28;20068;-52
2024/03/05 07:38:27;;;;;;;36.40;20.15;;;10.00;68.30;;;5.09;100.00;95260.97;4990616;28;20097;-53
2024/03/05 07:40:53;;;;;;;38.80;19.08;;;10.10;68.40;;;5.11;100.00;95266.03;4992418;28;20484;-54
2024/03/05 07:43:19;;;;;;;34.55;18.20;;;10.10;68.30;;;5.10;100.00;95269.69;4999274;28;20025;-52
2024/03/05 07:45:45;;;;;;;37.22;19.75;;;10.10;68.30;;;5.08;100.00;95271.78;4994016;28;20034;-51
2024/03/05 07:48:11;;;;;;;39.60;20.20;;;10.10;68.40;;;5.10;100.00;95280.25;4994490;28;20396;-55
2024/03/05 07:50:38;;;;;;;37.80;21.50;;;10.00;68.30;;;5.06;100.00;95276.47;4990597;28;20025;-54
2024/03/05 07:53:04;;;;;;;41.97;20.98;;;10.00;68.40;;;5.04;100.00;95281.97;4993706;28;20559;-53
2024/03/05 07:55:30;;;;;;;39.63;20.83;;;10.00;68.50;;;5.09;100.00;95284.72;4987542;28;20033;-56
2024/03/05 07:57:56;;;;;;;43.63;21.42;;;10.00;68.60;;;5.05;100.00;95278.31;4996974;28;20044;-54
2024/03/05 08:00:24;;;;;;;41.45;20.42;;;9.90;68.60;;;5.09;100.00;95281.28;4994365;28;20056;-53
2024/03/05 08:02:55;;;;;;;30.80;16.58;;;9.90;68.70;;;5.04;100.00;95287.25;4989841;28;20109;-53
2024/03/05 08:05:23;;;;;;;33.80;17.58;;;10.00;68.80;;;5.02;100.00;95286.72;4998205;28;20161;-53
2024/03/05 08:07:57;;;;;;;22.25;12.50;;;10.00;68.80;;;4.97;100.00;95291.09;4977566;28;20035;-56
2024/03/05 08:10:25;;;;;;;19.30;11.48;;;10.00;68.80;;;4.91;100.00;95294.69;4995170;28;20516;-54
2024/03/05 08:12:55;;;;;;;16.77;10.20;;;10.00;68.60;;;4.84;100.00;95300.91;4988673;28;20048;-55
2024/03/05 08:15:24;;;;;;;17.35;10.20;;;10.00;68.60;;;4.96;100.00;95292.16;4993137;28;20366;-56
2024/03/05 08:17:51;;;;;;;16.90;10.23;;;10.00;68.40;;;4.99;100.00;95296.97;4975873;28;20388;-55
2024/03/05 08:20:27;;;;;;;18.02;9.88;;;10.00;68.40;;;5.07;100.00;95293.91;4990687;28;20026;-51
2024/03/05 08:22:55;;;;;;;16.55;10.23;;;10.10;68.50;;;5.14;100.00;95294.59;4998165;28;20384;-51
2024/03/05 08:25:24;;;;;;;17.08;9.60;;;10.10;68.40;;;5.06;100.00;95294.97;4995361;28;20113;-51
2024/03/05 08:27:57;;;;;;;17.00;8.43;;;10.20;68.30;;;5.16;100.00;95305.69;4998764;28;20083;-51
2024/03/05 08:30:30;;;;;;;13.13;7.85;;;10.20;68.10;;;5.15;100.00;95306.75;4987888;28;20034;-51
2024/03/05 08:32:57;;;;;;;13.27;7.80;;;10.20;68.10;;;5.16;100.00;95305.69;4992465;28;20029;-51
2024/03/05 08:35:25;;;;;;;12.45;7.25;;;10.20;68.00;;;5.21;100.00;95312.94;4985410;28;20046;-53
2024/03/05 08:37:51;;;;;;;12.50;6.95;;;10.20;68.00;;;5.28;100.00;95316.22;4994860;28;20084;-53
2024/03/05 08:40:20;;;;;;;10.13;6.43;;;10.30;68.00;;;5.25;100.00;95311.41;4999537;28;20469;-51
2024/03/05 08:42:51;;;;;;;8.85;6.20;;;10.20;68.00;;;5.10;100.00;95319.84;4997193;28;20036;-56
2024/03/05 08:45:20;;;;;;;8.32;5.70;;;10.30;67.90;;;5.09;100.00;95318.25;4995860;28;20054;-56
2024/03/05 08:47:55;;;;;;;7.55;5.57;;;10.30;67.70;;;5.10;100.00;95320.63;4996893;28;20034;-54
2024/03/05 08:50:23;;;;;;;10.07;5.60;;;10.20;67.60;;;5.14;100.00;95325.44;4988839;28;20078;-52
2024/03/05 08:52:49;;;;;;;7.10;5.40;;;10.30;67.60;;;5.13;100.00;95329.94;4986303;28;20080;-53
2024/03/05 08:55:17;;;;;;;7.75;5.30;;;10.30;67.50;;;5.15;100.00;95329.72;4990946;28;20440;-53
2024/03/05 08:57:45;;;;;;;7.82;5.47;;;10.30;67.60;;;5.10;100.00;95328.56;4994694;28;20744;-52
2024/03/05 09:00:17;;;;;;;7.63;5.07;;;10.30;67.40;;;5.17;100.00;95331.09;5000175;28;20021;-54
2024/03/05 09:02:44;;;;;;;8.55;5.18;;;10.30;67.40;;;5.18;100.00;95337.97;4989779;28;20025;-53
2024/03/05 09:05:11;;;;;;;7.82;5.65;;;10.30;67.30;;;5.20;100.00;95340.34;5001756;28;20124;-53
2024/03/05 09:07:40;;;;;;;7.10;4.70;;;10.30;67.30;;;5.22;100.00;95339.09;4982384;28;20030;-53
2024/03/05 09:10:09;;;;;;;6.85;4.50;;;10.30;67.20;;;5.23;100.00;95338.06;4990783;28;20120;-54
2024/03/05 09:12:36;;;;;;;7.47;4.78;;;10.40;67.20;;;5.28;100.00;95342.63;4996381;28;20164;-53
2024/03/05 09:15:05;;;;;;;7.15;5.25;;;10.40;67.20;;;5.24;100.00;95339.66;4997605;28;20025;-54
2024/03/05 09:17:33;;;;;;;8.57;5.45;;;10.40;67.10;;;5.23;100.00;95340.72;4989169;28;20030;-53
2024/03/05 09:20:01;;;;;;;8.02;4.85;;;10.40;67.00;;;5.28;100.00;95342.63;4993154;28;20029;-53
2024/03/05 09:22:28;;;;;;;8.13;5.05;;;10.40;67.00;;;5.36;100.00;95341.44;4999384;28;20029;-54
2024/03/05 09:24:53;;;;;;;7.65;5.07;;;10.50;67.10;;;5.41;100.00;95344.16;4988893;28;20075;-53
2024/03/05 09:27:19;;;;;;;7.15;4.85;;;10.70;67.80;;;5.57;100.00;95336.25;4994925;28;20465;-52
2024/03/05 09:29:46;;;;;;;7.72;4.90;;;11.00;67.70;;;5.87;100.00;95326.44;4992147;28;20026;-51
2024/03/05 09:32:12;;;;;;;6.40;4.57;;;11.40;66.70;;;6.18;100.00;95330.38;4994811;28;20029;-53
2024/03/05 09:34:38;;;;;;;5.47;4.40;;;11.80;66.60;;;6.53;100.00;95326.63;4996614;28;20029;-56
2024/03/05 09:37:06;;;;;;;5.82;4.15;;;12.40;66.30;;;6.92;100.00;95328.16;4990700;28;20036;-54
2024/03/05 09:39:32;;;;;;;5.75;4.53;;;12.90;65.80;;;7.35;100.00;95321.19;4995045;28;20025;-52
2024/03/05 09:41:58;;;;;;;4.50;3.85;;;13.40;65.10;;;7.77;100.00;95327.66;4998634;28;20029;-55
2024/03/05 09:44:25;;;;;;;3.92;3.53;;;14.00;64.50;;;8.18;100.00;95327.97;4980782;28;20021;-54
2024/03/05 09:46:51;;;;;;;4.47;3.72;;;14.50;63.50;;;8.45;100.00;95330.56;4995748;28;20044;-55
2024/03/05 09:49:20;;;;;;;4.28;3.60;;;14.90;62.70;;;8.63;98.42;95332.78;4980886;28;20025;-53
2024/03/05 09:51:48;;;;;;;3.80;3.05;;;15.20;61.70;;;8.70;95.67;95338.66;4986171;28;20026;-53
2024/03/05 09:54:14;;;;;;;3.30;3.00;;;15.50;60.80;;;8.68;93.65;95334.66;4997795;28;20033;-51
2024/03/05 09:56:47;;;;;;;4.30;3.20;;;15.60;60.00;;;8.58;90.96;95343.38;4996922;28;20040;-50
2024/03/05 09:59:16;;;;;;;4.15;3.30;;;15.70;59.10;;;8.67;91.69;95333.06;4998159;28;20025;-51
2024/03/05 10:01:49;;;;;;;3.40;3.10;;;15.60;58.80;;;8.82;91.57;95335.00;4994819;28;20077;-51
2024/03/05 10:04:17;;;;;;;4.63;3.42;;;15.70;58.50;;;9.00;93.80;95332.69;5001817;28;20026;-53
2024/03/05 10:06:48;;;;;;;7.50;5.07;;;15.70;58.50;;;9.08;92.29;95336.69;4997929;28;20427;-51
2024/03/05 10:09:15;;;;;;;4.30;3.75;;;15.80;58.30;;;9.04;90.29;95328.44;5000825;28;20049;-50
2024/03/05 10:11:42;;;;;;;8.23;3.80;;;15.90;58.60;;;9.11;88.99;95330.84;5002314;28;20044;-51
2024/03/05 10:14:10;;;;;;;4.30;3.60;;;16.00;57.40;;;9.10;90.35;95339.91;4990577;28;20552;-52
2024/03/05 10:16:38;;;;;;;4.15;3.30;;;16.00;57.00;;;9.04;91.17;95336.41;4988820;28;20095;-50